KAWO/AWO METAR and TAF weather

Enter ICAO airport designator
Station Type Date Time Source
KAWO METAR 2018/12/12 16:56 UTC NOAA

KAWO 121656Z AUTO 17008KT 10SM BKN035 OVC043 05/03 A3025 RMK AO2 SLP247 T00500033


Station Type Date Time Source
KAWO Decoded METAR 2018/12/12 16:56 UTC NOAA

Arlington Municipal, WA, United States (KAWO) 48-10N 122-10W
Dec 12, 2018 - 11:56 AM EST / 2018.12.12 1656 UTC
Wind: from the S (170 degrees) at 9 MPH (8 KT):0
Visibility: 10 mile(s):0
Sky conditions: overcast
Temperature: 41.0 F (5.0 C)
Dew Point: 37.9 F (3.3 C)
Relative Humidity: 88%
Pressure (altimeter): 30.25 in. Hg (1024 hPa)
ob: KAWO 121656Z AUTO 17008KT 10SM BKN035 OVC043 05/03 A3025 RMK AO2 SLP247 T00500033
cycle: 17

Station Type Date Time Source
KAWO TAF UTC NOAA

Error!


Example: see airport list